This is the latest recevied weather packets stored in our database for station/object SV7RNH. If no packets are shown the sender has not sent any weather packets the latest 10 day(s).
| Time | Temp. | Humidity | Pressure | Rain* | Wind** | Luminosity | Snow |
|---|---|---|---|---|---|---|---|
| 1777476904 | 21.67° C | 40% | 1016.9 hPa | 0 mm | - | - | - |
| 1777476604 | 21.67° C | 39% | 1016.8 hPa | 0 mm | - | - | - |
| 1777476303 | 22.22° C | 36% | 1016.8 hPa | 0 mm | - | - | - |
| 1777476004 | 22.78° C | 35% | 1016.9 hPa | 0 mm | - | - | - |
| 1777475703 | 23.89° C | 33% | 1016.9 hPa | 0 mm | - | - | - |
| 1777475403 | 23.33° C | 33% | 1016.9 hPa | 0 mm | - | - | - |
| 1777475104 | 23.33° C | 33% | 1017 hPa | 0 mm | - | - | - |
| 1777474804 | 23.89° C | 33% | 1016.9 hPa | 0 mm | - | - | - |
| 1777474504 | 24.44° C | 32% | 1017.1 hPa | 0 mm | - | - | - |
| 1777474203 | 24.44° C | 31% | 1017 hPa | 0 mm | - | - | - |
| 1777473904 | 24.44° C | 33% | 1016.9 hPa | 0 mm | - | - | - |
| 1777473604 | 23.89° C | 35% | 1017 hPa | 0 mm | - | - | - |
| 1777473304 | 23.89° C | 35% | 1017.2 hPa | 0 mm | - | - | - |
| 1777473003 | 23.89° C | 34% | 1017.2 hPa | 0 mm | - | - | - |
| 1777472703 | 23.89° C | 36% | 1017.3 hPa | 0 mm | - | - | - |
| 1777472404 | 23.89° C | 37% | 1017.3 hPa | 0 mm | - | - | - |
| 1777472104 | 23.89° C | 38% | 1017.5 hPa | 0 mm | - | - | - |
| 1777471803 | 23.89° C | 38% | 1017.4 hPa | 0 mm | - | - | - |
| 1777471503 | 23.89° C | 38% | 1017.5 hPa | 0 mm | - | - | - |
| 1777471204 | 24.44° C | 37% | 1017.6 hPa | 0 mm | - | - | - |
| 1777470904 | 24.44° C | 35% | 1017.6 hPa | 0 mm | - | - | - |
| 1777470603 | 25° C | 36% | 1017.5 hPa | 0 mm | - | - | - |
| 1777470304 | 25° C | 37% | 1017.6 hPa | 0 mm | - | - | - |
| 1777470004 | 25° C | 38% | 1017.6 hPa | 0 mm | - | - | - |
| 1777469704 | 25° C | 38% | 1017.6 hPa | 0 mm | - | - | - |
* Rain latest hour (hover to see other rain measurements)
** Current wind speed in m/s (hover to see current wind gust speed)